sensor_id;sensor_type;location;lat;lon;timestamp;P1;durP1;ratioP1;P2;durP2;ratioP2
62149;SDS011;48134;53.586;10.610;2023-07-29T13:28:19;7.07;;;4.10;;
62149;SDS011;48134;53.586;10.610;2023-07-29T13:30:52;6.37;;;3.80;;
62149;SDS011;48134;53.586;10.610;2023-07-29T13:33:25;6.17;;;4.10;;
62149;SDS011;48134;53.586;10.610;2023-07-29T13:35:53;7.27;;;3.60;;
62149;SDS011;48134;53.586;10.610;2023-07-29T13:38:26;6.03;;;3.80;;
62149;SDS011;48134;53.586;10.610;2023-07-29T13:41:00;6.97;;;3.40;;
62149;SDS011;48134;53.586;10.610;2023-07-29T13:43:34;8.95;;;3.20;;
62149;SDS011;48134;53.586;10.610;2023-07-29T13:46:07;6.72;;;3.67;;
62149;SDS011;48134;53.586;10.610;2023-07-29T13:48:40;8.25;;;5.60;;
62149;SDS011;48134;53.586;10.610;2023-07-29T13:51:13;6.00;;;3.58;;
62149;SDS011;48134;53.586;10.610;2023-07-29T13:53:42;4.93;;;3.20;;
62149;SDS011;48134;53.586;10.610;2023-07-29T13:56:15;5.88;;;2.90;;
62149;SDS011;48134;53.586;10.610;2023-07-29T13:58:45;5.55;;;3.10;;
62149;SDS011;48134;53.586;10.610;2023-07-29T14:01:13;5.07;;;3.28;;
62149;SDS011;48134;53.586;10.610;2023-07-29T14:03:41;5.35;;;2.78;;
62149;SDS011;48134;53.586;10.610;2023-07-29T14:06:09;5.07;;;2.65;;
62149;SDS011;48134;53.586;10.610;2023-07-29T14:08:43;19.17;;;13.90;;
62149;SDS011;48134;53.586;10.610;2023-07-29T14:11:11;9.18;;;5.40;;
62149;SDS011;48134;53.586;10.610;2023-07-29T14:13:39;5.38;;;3.15;;
62149;SDS011;48134;53.586;10.610;2023-07-29T14:16:09;4.78;;;2.70;;
62149;SDS011;48134;53.586;10.610;2023-07-29T14:18:42;4.20;;;2.70;;
62149;SDS011;48134;53.586;10.610;2023-07-29T14:21:15;4.45;;;2.60;;
62149;SDS011;48134;53.586;10.610;2023-07-29T14:23:48;4.93;;;2.88;;
62149;SDS011;48134;53.586;10.610;2023-07-29T14:26:21;3.95;;;2.50;;
62149;SDS011;48134;53.586;10.610;2023-07-29T14:28:55;6.23;;;2.80;;
62149;SDS011;48134;53.586;10.610;2023-07-29T14:31:31;4.43;;;2.60;;
62149;SDS011;48134;53.586;10.610;2023-07-29T14:33:59;4.03;;;2.50;;
62149;SDS011;48134;53.586;10.610;2023-07-29T14:36:32;4.60;;;2.67;;
62149;SDS011;48134;53.586;10.610;2023-07-29T14:39:05;6.28;;;3.03;;
62149;SDS011;48134;53.586;10.610;2023-07-29T14:41:34;3.72;;;2.38;;
62149;SDS011;48134;53.586;10.610;2023-07-29T14:44:07;3.75;;;2.20;;
62149;SDS011;48134;53.586;10.610;2023-07-29T14:46:42;3.45;;;2.28;;
62149;SDS011;48134;53.586;10.610;2023-07-29T14:49:10;4.93;;;2.60;;
62149;SDS011;48134;53.586;10.610;2023-07-29T14:51:38;4.87;;;2.40;;
62149;SDS011;48134;53.586;10.610;2023-07-29T14:54:11;3.93;;;2.30;;
62149;SDS011;48134;53.586;10.610;2023-07-29T14:56:44;4.60;;;2.40;;
62149;SDS011;48134;53.586;10.610;2023-07-29T14:59:17;6.20;;;2.40;;
62149;SDS011;48134;53.586;10.610;2023-07-29T15:01:47;4.05;;;2.33;;
62149;SDS011;48134;53.586;10.610;2023-07-29T15:04:20;3.90;;;2.28;;
62149;SDS011;48134;53.586;10.610;2023-07-29T15:06:53;5.63;;;2.50;;
62149;SDS011;48134;53.586;10.610;2023-07-29T15:09:26;4.32;;;2.53;;
62149;SDS011;48134;53.586;10.610;2023-07-29T15:11:59;4.35;;;2.50;;
62149;SDS011;48134;53.586;10.610;2023-07-29T15:14:28;4.13;;;2.50;;
62149;SDS011;48134;53.586;10.610;2023-07-29T15:17:02;4.40;;;2.60;;
62149;SDS011;48134;53.586;10.610;2023-07-29T15:19:31;4.20;;;2.47;;
62149;SDS011;48134;53.586;10.610;2023-07-29T15:22:04;5.28;;;2.40;;
62149;SDS011;48134;53.586;10.610;2023-07-29T15:24:38;4.78;;;2.60;;
62149;SDS011;48134;53.586;10.610;2023-07-29T15:27:14;5.65;;;2.70;;
62149;SDS011;48134;53.586;10.610;2023-07-29T15:29:47;6.07;;;2.60;;
62149;SDS011;48134;53.586;10.610;2023-07-29T15:32:22;4.22;;;2.70;;
62149;SDS011;48134;53.586;10.610;2023-07-29T15:34:56;5.05;;;2.72;;
62149;SDS011;48134;53.586;10.610;2023-07-29T15:37:29;5.05;;;2.90;;
62149;SDS011;48134;53.586;10.610;2023-07-29T15:40:03;5.20;;;2.80;;
62149;SDS011;48134;53.586;10.610;2023-07-29T15:42:38;4.23;;;2.80;;
62149;SDS011;48134;53.586;10.610;2023-07-29T15:45:06;4.27;;;2.60;;
62149;SDS011;48134;53.586;10.610;2023-07-29T15:47:37;5.68;;;2.67;;
62149;SDS011;48134;53.586;10.610;2023-07-29T15:50:05;5.65;;;2.42;;
62149;SDS011;48134;53.586;10.610;2023-07-29T15:52:34;3.65;;;2.47;;
62149;SDS011;48134;53.586;10.610;2023-07-29T15:55:02;5.20;;;2.78;;
62149;SDS011;48134;53.586;10.610;2023-07-29T15:57:36;6.07;;;2.63;;
62149;SDS011;48134;53.586;10.610;2023-07-29T16:00:05;4.50;;;2.30;;
62149;SDS011;48134;53.586;10.610;2023-07-29T16:02:42;6.27;;;2.63;;
62149;SDS011;48134;53.586;10.610;2023-07-29T16:05:10;6.65;;;2.45;;
62149;SDS011;48134;53.586;10.610;2023-07-29T16:07:43;5.22;;;2.40;;
62149;SDS011;48134;53.586;10.610;2023-07-29T16:10:12;3.90;;;2.30;;
62149;SDS011;48134;53.586;10.610;2023-07-29T16:12:40;4.93;;;2.30;;
62149;SDS011;48134;53.586;10.610;2023-07-29T16:15:13;19.77;;;11.80;;
62149;SDS011;48134;53.586;10.610;2023-07-29T16:17:43;4.75;;;2.50;;
62149;SDS011;48134;53.586;10.610;2023-07-29T16:20:18;4.78;;;2.30;;
62149;SDS011;48134;53.586;10.610;2023-07-29T16:22:51;4.22;;;2.40;;
62149;SDS011;48134;53.586;10.610;2023-07-29T16:25:20;3.97;;;2.25;;
62149;SDS011;48134;53.586;10.610;2023-07-29T16:27:53;4.88;;;2.30;;
62149;SDS011;48134;53.586;10.610;2023-07-29T16:30:22;4.22;;;2.00;;
62149;SDS011;48134;53.586;10.610;2023-07-29T16:32:57;4.47;;;2.10;;
62149;SDS011;48134;53.586;10.610;2023-07-29T16:35:25;3.22;;;1.90;;
62149;SDS011;48134;53.586;10.610;2023-07-29T16:37:53;4.68;;;1.90;;
62149;SDS011;48134;53.586;10.610;2023-07-29T16:40:22;4.00;;;2.10;;
62149;SDS011;48134;53.586;10.610;2023-07-29T16:42:50;3.95;;;2.10;;
62149;SDS011;48134;53.586;10.610;2023-07-29T16:45:23;4.22;;;1.95;;
62149;SDS011;48134;53.586;10.610;2023-07-29T16:47:58;3.80;;;2.03;;
62149;SDS011;48134;53.586;10.610;2023-07-29T16:50:31;3.27;;;2.07;;
62149;SDS011;48134;53.586;10.610;2023-07-29T16:53:01;3.88;;;2.22;;
62149;SDS011;48134;53.586;10.610;2023-07-29T16:55:34;6.18;;;2.40;;
62149;SDS011;48134;53.586;10.610;2023-07-29T16:58:07;4.68;;;2.28;;
62149;SDS011;48134;53.586;10.610;2023-07-29T17:00:41;6.45;;;2.50;;
62149;SDS011;48134;53.586;10.610;2023-07-29T17:03:15;4.78;;;2.63;;
62149;SDS011;48134;53.586;10.610;2023-07-29T17:05:45;4.05;;;2.20;;
62149;SDS011;48134;53.586;10.610;2023-07-29T17:08:18;4.05;;;2.15;;
62149;SDS011;48134;53.586;10.610;2023-07-29T17:10:46;4.57;;;2.17;;
62149;SDS011;48134;53.586;10.610;2023-07-29T17:13:19;5.53;;;2.50;;
62149;SDS011;48134;53.586;10.610;2023-07-29T17:15:53;4.28;;;2.30;;
62149;SDS011;48134;53.586;10.610;2023-07-29T17:18:27;4.32;;;2.15;;
62149;SDS011;48134;53.586;10.610;2023-07-29T17:20:55;5.63;;;2.30;;
62149;SDS011;48134;53.586;10.610;2023-07-29T17:23:29;5.57;;;2.30;;
62149;SDS011;48134;53.586;10.610;2023-07-29T17:25:57;3.50;;;2.00;;
62149;SDS011;48134;53.586;10.610;2023-07-29T17:28:31;8.73;;;2.10;;
62149;SDS011;48134;53.586;10.610;2023-07-29T17:31:04;4.23;;;1.87;;
62149;SDS011;48134;53.586;10.610;2023-07-29T17:33:34;7.47;;;3.17;;
62149;SDS011;48134;53.586;10.610;2023-07-29T17:36:02;6.75;;;1.90;;
62149;SDS011;48134;53.586;10.610;2023-07-29T17:38:35;4.03;;;1.80;;
62149;SDS011;48134;53.586;10.610;2023-07-29T17:41:08;4.50;;;1.90;;
62149;SDS011;48134;53.586;10.610;2023-07-29T17:43:41;4.38;;;1.90;;
62149;SDS011;48134;53.586;10.610;2023-07-29T17:46:11;3.00;;;1.80;;
62149;SDS011;48134;53.586;10.610;2023-07-29T17:48:41;4.85;;;1.80;;
62149;SDS011;48134;53.586;10.610;2023-07-29T17:51:10;4.40;;;2.03;;
62149;SDS011;48134;53.586;10.610;2023-07-29T17:53:38;6.95;;;2.10;;
62149;SDS011;48134;53.586;10.610;2023-07-29T17:56:12;5.50;;;1.90;;
62149;SDS011;48134;53.586;10.610;2023-07-29T17:58:45;4.57;;;1.90;;
62149;SDS011;48134;53.586;10.610;2023-07-29T18:01:13;4.40;;;2.03;;
62149;SDS011;48134;53.586;10.610;2023-07-29T18:03:47;5.13;;;1.90;;
62149;SDS011;48134;53.586;10.610;2023-07-29T18:06:16;4.18;;;1.90;;
62149;SDS011;48134;53.586;10.610;2023-07-29T18:08:50;3.63;;;2.00;;
62149;SDS011;48134;53.586;10.610;2023-07-29T18:11:23;3.58;;;2.13;;
62149;SDS011;48134;53.586;10.610;2023-07-29T18:13:56;4.20;;;2.08;;
62149;SDS011;48134;53.586;10.610;2023-07-29T18:16:29;4.57;;;2.20;;
62149;SDS011;48134;53.586;10.610;2023-07-29T18:18:59;5.28;;;2.20;;
62149;SDS011;48134;53.586;10.610;2023-07-29T18:21:32;5.03;;;2.10;;
62149;SDS011;48134;53.586;10.610;2023-07-29T18:24:00;5.28;;;2.40;;
62149;SDS011;48134;53.586;10.610;2023-07-29T18:26:34;4.28;;;2.22;;
62149;SDS011;48134;53.586;10.610;2023-07-29T18:29:07;7.28;;;3.72;;
62149;SDS011;48134;53.586;10.610;2023-07-29T18:31:40;4.75;;;2.15;;
62149;SDS011;48134;53.586;10.610;2023-07-29T18:34:14;4.30;;;2.25;;
62149;SDS011;48134;53.586;10.610;2023-07-29T18:36:48;5.18;;;2.22;;
62149;SDS011;48134;53.586;10.610;2023-07-29T18:39:16;5.72;;;2.30;;
62149;SDS011;48134;53.586;10.610;2023-07-29T18:41:49;5.22;;;2.40;;
62149;SDS011;48134;53.586;10.610;2023-07-29T18:44:17;5.35;;;2.42;;
62149;SDS011;48134;53.586;10.610;2023-07-29T18:46:50;5.85;;;2.40;;
62149;SDS011;48134;53.586;10.610;2023-07-29T18:49:25;6.23;;;2.63;;
62149;SDS011;48134;53.586;10.610;2023-07-29T18:51:58;4.40;;;2.50;;
62149;SDS011;48134;53.586;10.610;2023-07-29T18:54:31;5.25;;;2.60;;
62149;SDS011;48134;53.586;10.610;2023-07-29T18:57:06;6.10;;;2.88;;
62149;SDS011;48134;53.586;10.610;2023-07-29T18:59:40;5.13;;;2.83;;
62149;SDS011;48134;53.586;10.610;2023-07-29T19:02:13;6.28;;;2.78;;
62149;SDS011;48134;53.586;10.610;2023-07-29T19:04:48;6.10;;;2.75;;
62149;SDS011;48134;53.586;10.610;2023-07-29T19:07:21;6.65;;;3.00;;
62149;SDS011;48134;53.586;10.610;2023-07-29T19:09:56;6.03;;;2.97;;
62149;SDS011;48134;53.586;10.610;2023-07-29T19:12:30;6.15;;;3.35;;
62149;SDS011;48134;53.586;10.610;2023-07-29T19:15:04;6.88;;;3.33;;
62149;SDS011;48134;53.586;10.610;2023-07-29T19:17:38;6.15;;;3.08;;
62149;SDS011;48134;53.586;10.610;2023-07-29T19:20:13;7.47;;;2.88;;
62149;SDS011;48134;53.586;10.610;2023-07-29T19:22:46;6.55;;;3.45;;
62149;SDS011;48134;53.586;10.610;2023-07-29T19:25:19;7.25;;;3.40;;
62149;SDS011;48134;53.586;10.610;2023-07-29T19:27:47;8.18;;;3.40;;
62149;SDS011;48134;53.586;10.610;2023-07-29T19:30:21;6.60;;;3.00;;
62149;SDS011;48134;53.586;10.610;2023-07-29T19:32:49;6.03;;;3.28;;
62149;SDS011;48134;53.586;10.610;2023-07-29T19:35:25;5.65;;;3.05;;
62149;SDS011;48134;53.586;10.610;2023-07-29T19:37:59;7.47;;;3.30;;
62149;SDS011;48134;53.586;10.610;2023-07-29T19:40:32;6.22;;;3.10;;
62149;SDS011;48134;53.586;10.610;2023-07-29T19:43:06;6.35;;;3.17;;
62149;SDS011;48134;53.586;10.610;2023-07-29T19:45:35;5.40;;;3.28;;
62149;SDS011;48134;53.586;10.610;2023-07-29T19:48:08;6.10;;;3.30;;
62149;SDS011;48134;53.586;10.610;2023-07-29T19:50:42;10.35;;;3.60;;
62149;SDS011;48134;53.586;10.610;2023-07-29T19:53:17;6.10;;;3.15;;
62149;SDS011;48134;53.586;10.610;2023-07-29T19:55:50;8.82;;;3.55;;
62149;SDS011;48134;53.586;10.610;2023-07-29T19:58:19;6.28;;;3.30;;
62149;SDS011;48134;53.586;10.610;2023-07-29T20:00:48;7.35;;;3.80;;
62149;SDS011;48134;53.586;10.610;2023-07-29T20:03:22;7.38;;;3.80;;
62149;SDS011;48134;53.586;10.610;2023-07-29T20:05:56;8.82;;;3.92;;
62149;SDS011;48134;53.586;10.610;2023-07-29T20:08:30;7.55;;;3.65;;
62149;SDS011;48134;53.586;10.610;2023-07-29T20:11:04;7.35;;;4.28;;
62149;SDS011;48134;53.586;10.610;2023-07-29T20:13:37;10.65;;;4.70;;
62149;SDS011;48134;53.586;10.610;2023-07-29T20:16:11;9.05;;;4.40;;
62149;SDS011;48134;53.586;10.610;2023-07-29T20:18:44;9.48;;;4.72;;
62149;SDS011;48134;53.586;10.610;2023-07-29T20:21:13;8.68;;;4.80;;
62149;SDS011;48134;53.586;10.610;2023-07-29T20:23:46;8.90;;;5.10;;
62149;SDS011;48134;53.586;10.610;2023-07-29T20:26:17;7.07;;;4.30;;
62149;SDS011;48134;53.586;10.610;2023-07-29T20:28:50;9.20;;;5.10;;
62149;SDS011;48134;53.586;10.610;2023-07-29T20:31:19;8.45;;;4.68;;
62149;SDS011;48134;53.586;10.610;2023-07-29T20:33:47;10.00;;;4.60;;
62149;SDS011;48134;53.586;10.610;2023-07-29T20:36:22;7.83;;;4.80;;
62149;SDS011;48134;53.586;10.610;2023-07-29T20:38:59;7.47;;;4.68;;
62149;SDS011;48134;53.586;10.610;2023-07-29T20:41:32;7.97;;;4.73;;
62149;SDS011;48134;53.586;10.610;2023-07-29T20:44:00;9.48;;;4.68;;
62149;SDS011;48134;53.586;10.610;2023-07-29T20:46:34;12.30;;;4.97;;
62149;SDS011;48134;53.586;10.610;2023-07-29T20:49:07;10.95;;;5.50;;
62149;SDS011;48134;53.586;10.610;2023-07-29T20:51:37;11.15;;;5.50;;
62149;SDS011;48134;53.586;10.610;2023-07-29T20:54:10;10.52;;;5.28;;
62149;SDS011;48134;53.586;10.610;2023-07-29T20:56:38;9.55;;;5.20;;
62149;SDS011;48134;53.586;10.610;2023-07-29T20:59:11;10.30;;;5.30;;
62149;SDS011;48134;53.586;10.610;2023-07-29T21:01:45;10.02;;;5.07;;
62149;SDS011;48134;53.586;10.610;2023-07-29T21:04:18;10.00;;;5.37;;
62149;SDS011;48134;53.586;10.610;2023-07-29T21:06:52;10.50;;;5.43;;
62149;SDS011;48134;53.586;10.610;2023-07-29T21:09:25;10.75;;;5.80;;
62149;SDS011;48134;53.586;10.610;2023-07-29T21:11:59;10.63;;;5.30;;
62149;SDS011;48134;53.586;10.610;2023-07-29T21:14:27;10.07;;;5.82;;
62149;SDS011;48134;53.586;10.610;2023-07-29T21:17:00;10.68;;;5.78;;
62149;SDS011;48134;53.586;10.610;2023-07-29T21:19:33;9.88;;;5.25;;
62149;SDS011;48134;53.586;10.610;2023-07-29T21:22:08;10.68;;;6.20;;
62149;SDS011;48134;53.586;10.610;2023-07-29T21:24:41;9.82;;;5.80;;
62149;SDS011;48134;53.586;10.610;2023-07-29T21:27:09;12.38;;;6.05;;
62149;SDS011;48134;53.586;10.610;2023-07-29T21:29:43;11.13;;;6.50;;
62149;SDS011;48134;53.586;10.610;2023-07-29T21:32:16;10.75;;;6.43;;
62149;SDS011;48134;53.586;10.610;2023-07-29T21:34:49;13.40;;;6.40;;
62149;SDS011;48134;53.586;10.610;2023-07-29T21:37:21;9.15;;;5.72;;
62149;SDS011;48134;53.586;10.610;2023-07-29T21:39:54;10.13;;;5.78;;
62149;SDS011;48134;53.586;10.610;2023-07-29T21:42:27;10.57;;;6.10;;
62149;SDS011;48134;53.586;10.610;2023-07-29T21:45:00;12.43;;;5.60;;
62149;SDS011;48134;53.586;10.610;2023-07-29T21:47:28;10.15;;;5.50;;
62149;SDS011;48134;53.586;10.610;2023-07-29T21:50:01;10.15;;;5.60;;
62149;SDS011;48134;53.586;10.610;2023-07-29T21:52:37;9.23;;;5.70;;
62149;SDS011;48134;53.586;10.610;2023-07-29T21:55:10;9.32;;;5.43;;
62149;SDS011;48134;53.586;10.610;2023-07-29T21:57:43;10.82;;;5.40;;
62149;SDS011;48134;53.586;10.610;2023-07-29T22:00:17;11.52;;;5.68;;
62149;SDS011;48134;53.586;10.610;2023-07-29T22:02:50;9.07;;;5.40;;
62149;SDS011;48134;53.586;10.610;2023-07-29T22:05:24;11.30;;;5.28;;
62149;SDS011;48134;53.586;10.610;2023-07-29T22:07:59;8.63;;;5.03;;
62149;SDS011;48134;53.586;10.610;2023-07-29T22:10:32;8.85;;;5.28;;
62149;SDS011;48134;53.586;10.610;2023-07-29T22:13:00;9.38;;;5.30;;
62149;SDS011;48134;53.586;10.610;2023-07-29T22:15:33;11.23;;;5.72;;
62149;SDS011;48134;53.586;10.610;2023-07-29T22:18:07;11.30;;;5.85;;
62149;SDS011;48134;53.586;10.610;2023-07-29T22:20:35;11.70;;;5.03;;
62149;SDS011;48134;53.586;10.610;2023-07-29T22:23:09;8.98;;;5.15;;
62149;SDS011;48134;53.586;10.610;2023-07-29T22:25:42;10.45;;;5.03;;
62149;SDS011;48134;53.586;10.610;2023-07-29T22:28:16;9.30;;;5.03;;
62149;SDS011;48134;53.586;10.610;2023-07-29T22:30:50;8.13;;;5.18;;
62149;SDS011;48134;53.586;10.610;2023-07-29T22:33:23;9.57;;;4.97;;
62149;SDS011;48134;53.586;10.610;2023-07-29T22:35:57;9.43;;;5.03;;
62149;SDS011;48134;53.586;10.610;2023-07-29T22:38:32;10.68;;;5.30;;
62149;SDS011;48134;53.586;10.610;2023-07-29T22:41:05;13.68;;;6.72;;
62149;SDS011;48134;53.586;10.610;2023-07-29T22:43:39;15.73;;;7.05;;
62149;SDS011;48134;53.586;10.610;2023-07-29T22:46:12;10.52;;;6.53;;
62149;SDS011;48134;53.586;10.610;2023-07-29T22:48:45;12.80;;;7.03;;
62149;SDS011;48134;53.586;10.610;2023-07-29T22:51:19;19.90;;;7.30;;
62149;SDS011;48134;53.586;10.610;2023-07-29T22:53:54;11.98;;;6.97;;
62149;SDS011;48134;53.586;10.610;2023-07-29T22:56:27;10.85;;;6.55;;
62149;SDS011;48134;53.586;10.610;2023-07-29T22:58:55;12.00;;;6.70;;
62149;SDS011;48134;53.586;10.610;2023-07-29T23:01:25;11.00;;;7.15;;
62149;SDS011;48134;53.586;10.610;2023-07-29T23:03:59;10.70;;;6.60;;
62149;SDS011;48134;53.586;10.610;2023-07-29T23:06:27;10.07;;;6.45;;
62149;SDS011;48134;53.586;10.610;2023-07-29T23:09:02;11.43;;;6.72;;
62149;SDS011;48134;53.586;10.610;2023-07-29T23:11:35;12.10;;;6.57;;
62149;SDS011;48134;53.586;10.610;2023-07-29T23:14:08;9.90;;;6.13;;
62149;SDS011;48134;53.586;10.610;2023-07-29T23:16:41;11.75;;;6.68;;
62149;SDS011;48134;53.586;10.610;2023-07-29T23:19:14;14.55;;;6.68;;
62149;SDS011;48134;53.586;10.610;2023-07-29T23:21:47;14.23;;;6.85;;
62149;SDS011;48134;53.586;10.610;2023-07-29T23:24:22;10.73;;;6.75;;
62149;SDS011;48134;53.586;10.610;2023-07-29T23:26:55;11.73;;;6.32;;
62149;SDS011;48134;53.586;10.610;2023-07-29T23:29:28;12.75;;;6.63;;
62149;SDS011;48134;53.586;10.610;2023-07-29T23:32:01;9.63;;;6.37;;
62149;SDS011;48134;53.586;10.610;2023-07-29T23:34:30;13.15;;;6.20;;
62149;SDS011;48134;53.586;10.610;2023-07-29T23:37:03;10.82;;;6.15;;
62149;SDS011;48134;53.586;10.610;2023-07-29T23:39:38;10.82;;;5.82;;
62149;SDS011;48134;53.586;10.610;2023-07-29T23:42:06;10.20;;;5.50;;
62149;SDS011;48134;53.586;10.610;2023-07-29T23:44:40;12.90;;;5.72;;
62149;SDS011;48134;53.586;10.610;2023-07-29T23:47:13;8.45;;;5.40;;
62149;SDS011;48134;53.586;10.610;2023-07-29T23:49:41;11.35;;;5.47;;
62149;SDS011;48134;53.586;10.610;2023-07-29T23:52:14;9.13;;;5.43;;
62149;SDS011;48134;53.586;10.610;2023-07-29T23:54:44;11.05;;;5.38;;
62149;SDS011;48134;53.586;10.610;2023-07-29T23:57:17;13.60;;;5.55;;
62149;SDS011;48134;53.586;10.610;2023-07-29T23:59:50;8.90;;;5.22;;
